Terminal Aerodrome Forecast
Issued by NWS Houston/Galveston TX

Current Version | Previous Version | Text Only | Print | Product List | Glossary Off
Versions: 1 2 3 4 5 6 7 8 9 10 11 12 13 14 15 16 17 18 19 20 21 22 23 24 25 26 27 28 29 30 31 32 33 34 35 36 37 38 39 40 41 42 43 44 45 46 47 48 49 50

088
FTUS44 KHGX 200524
TAFHOU
TAF
KHOU 200524Z 2006/2106 18004KT P6SM FEW011
      TEMPO 2006/2009 4SM BR BKN007
     FM200900 19004KT 2SM BR OVC007
      TEMPO 2009/2012 1/2SM FG OVC002
     FM201500 22005KT 4SM BR BKN007 OVC012
     FM201800 22006KT P6SM SCT100
     FM210200 11005KT 6SM BR SCT015=

USA.gov is the U.S. government's official web portal to all federal, state and local government web resources and services.